Time;durP1;ratioP1;P1;durP2;ratioP2;P2;SDS_P1;SDS_P2;PMS_P1;PMS_P2;Temp;Humidity;BMP_temperature;BMP_pressure;BME280_temperature;BME280_humidity;BME280_pressure;Samples;Min_cycle;Max_cycle;Signal;HPM_P1;HPM_P2
2020/12/23 00:00:14;;;;;;;6.73;1.70;;;8.60;99.90;;;;;;5029953;28;20095;-89
2020/12/23 00:02:41;;;;;;;;;;;8.60;99.90;;;;;;5021838;28;20033;-91
2020/12/23 00:05:14;;;;;;;1.00;1.00;;;8.50;99.90;;;;;;5016100;28;19912;-91
2020/12/23 00:07:40;;;;;;;4.63;2.40;;;8.60;99.90;;;;;;5025712;28;20105;-92
2020/12/23 00:10:07;;;;;;;1.95;1.75;;;8.60;99.90;;;;;;5020910;28;20076;-91
2020/12/23 00:12:33;;;;;;;1.80;1.70;;;8.60;99.90;;;;;;5027372;28;20042;-88
2020/12/23 00:15:00;;;;;;;4.25;1.80;;;8.60;99.90;;;;;;5029747;28;20049;-91
2020/12/23 00:17:26;;;;;;;5.38;1.88;;;8.60;99.90;;;;;;5026661;28;20030;-90
2020/12/23 00:19:52;;;;;;;5.07;2.63;;;8.70;99.90;;;;;;5042846;28;20029;-90
2020/12/23 00:22:17;;;;;;;2.93;2.17;;;8.70;99.90;;;;;;5027217;28;20029;-91
2020/12/23 00:24:44;;;;;;;2.92;2.35;;;8.70;99.90;;;;;;5027574;28;20332;-90
2020/12/23 00:27:10;;;;;;;1.50;1.40;;;8.70;99.90;;;;;;5026799;28;20041;-90
2020/12/23 00:29:36;;;;;;;3.95;1.63;;;8.60;99.90;;;;;;5019521;28;20030;-90
2020/12/23 00:32:02;;;;;;;5.40;2.88;;;8.60;99.90;;;;;;5022952;28;20028;-91
2020/12/23 00:34:28;;;;;;;3.75;1.55;;;8.70;99.90;;;;;;5031124;28;20030;-90
2020/12/23 00:36:55;;;;;;;3.38;2.95;;;8.60;99.90;;;;;;5036633;28;20021;-91
2020/12/23 00:39:21;;;;;;;4.85;3.40;;;8.60;99.90;;;;;;5039055;28;20053;-87
2020/12/23 00:41:47;;;;;;;4.83;2.57;;;8.70;99.90;;;;;;5024725;28;20025;-90
2020/12/23 00:44:15;;;;;;;3.88;2.13;;;8.70;99.90;;;;;;5023964;28;20041;-89
2020/12/23 00:46:40;;;;;;;6.47;2.22;;;8.70;99.90;;;;;;5032047;28;20033;-90
2020/12/23 00:49:07;;;;;;;5.07;2.83;;;8.80;99.90;;;;;;5030456;28;20112;-90
2020/12/23 00:51:33;;;;;;;1.30;0.95;;;8.80;99.90;;;;;;5030181;28;20344;-88
2020/12/23 00:53:59;;;;;;;3.08;2.80;;;8.80;99.90;;;;;;5044004;28;20022;-91
2020/12/23 00:56:24;;;;;;;6.53;2.27;;;8.80;99.90;;;;;;5028346;28;20071;-90
2020/12/23 00:58:50;;;;;;;4.93;2.63;;;8.80;99.90;;;;;;5027691;28;20026;-92
2020/12/23 01:01:16;;;;;;;5.43;3.50;;;8.70;99.90;;;;;;5019024;28;20021;-91
2020/12/23 01:03:42;;;;;;;2.63;2.38;;;8.80;99.90;;;;;;5023302;28;20034;-89
2020/12/23 01:06:09;;;;;;;13.38;2.42;;;8.80;99.90;;;;;;5034169;28;20079;-90
2020/12/23 01:08:35;;;;;;;14.45;4.05;;;8.80;99.90;;;;;;5034614;28;20076;-91
2020/12/23 01:11:00;;;;;;;4.70;2.47;;;8.80;99.90;;;;;;5034166;28;20382;-90
2020/12/23 01:13:26;;;;;;;10.47;3.57;;;8.70;99.90;;;;;;5033190;28;20022;-89
2020/12/23 01:15:52;;;;;;;5.07;3.30;;;8.80;99.90;;;;;;5032127;28;20051;-88
2020/12/23 01:18:17;;;;;;;4.50;2.70;;;8.90;99.90;;;;;;5034433;28;20017;-89
2020/12/23 01:20:43;;;;;;;6.05;3.13;;;9.00;99.90;;;;;;5036626;28;20053;-87
2020/12/23 01:23:09;;;;;;;7.50;4.28;;;9.00;99.90;;;;;;5038104;28;20108;-89
2020/12/23 01:25:35;;;;;;;4.60;3.30;;;9.00;99.90;;;;;;5036465;28;20443;-89
2020/12/23 01:28:00;;;;;;;7.23;4.23;;;9.00;99.90;;;;;;5025577;28;20112;-90
2020/12/23 01:30:26;;;;;;;15.17;6.80;;;9.00;99.90;;;;;;5033674;28;20038;-87
2020/12/23 01:32:53;;;;;;;8.93;4.55;;;9.00;99.90;;;;;;5017522;28;20160;-88
2020/12/23 01:35:18;;;;;;;4.13;2.83;;;9.10;99.90;;;;;;5029933;28;20030;-87
2020/12/23 01:37:44;;;;;;;4.70;3.72;;;9.00;99.90;;;;;;5036490;28;20040;-88
2020/12/23 01:40:10;;;;;;;6.82;3.03;;;9.10;99.90;;;;;;5037709;28;20033;-89
2020/12/23 01:42:36;;;;;;;3.25;3.00;;;9.10;99.90;;;;;;5036910;28;20099;-87
2020/12/23 01:45:03;;;;;;;5.60;4.13;;;9.10;99.90;;;;;;5046021;28;20108;-88
2020/12/23 01:47:31;;;;;;;7.07;3.08;;;9.10;99.90;;;;;;5037599;28;20025;-87
2020/12/23 01:49:57;;;;;;;6.70;3.83;;;9.10;99.90;;;;;;5031682;28;20087;-88
2020/12/23 01:52:24;;;;;;;6.65;2.58;;;9.10;99.90;;;;;;5051098;28;20121;-88
2020/12/23 01:54:51;;;;;;;3.35;2.47;;;9.10;99.90;;;;;;5036319;28;20124;-88
2020/12/23 01:57:17;;;;;;;6.82;3.67;;;9.10;99.90;;;;;;5037682;28;20029;-89
2020/12/23 01:59:49;;;;;;;6.03;4.53;;;9.10;99.90;;;;;;5037493;28;20026;-88
2020/12/23 02:02:31;;;;;;;14.70;5.72;;;9.10;99.90;;;;;;5037168;28;20354;-89
2020/12/23 02:04:59;;;;;;;3.70;3.40;;;9.10;99.90;;;;;;5031857;28;20033;-88
2020/12/23 02:07:26;;;;;;;5.63;3.95;;;9.10;99.90;;;;;;5038240;28;20048;-89
2020/12/23 02:09:53;;;;;;;;;;;9.10;99.90;;;;;;5037669;28;20030;-89
2020/12/23 02:12:20;;;;;;;10.77;4.38;;;9.10;99.90;;;;;;5037005;28;19905;-87
2020/12/23 02:14:47;;;;;;;4.75;3.03;;;9.10;99.90;;;;;;5036688;28;20029;-88
2020/12/23 02:17:12;;;;;;;;;;;9.10;99.90;;;;;;5037828;28;20116;-89
2020/12/23 02:19:49;;;;;;;6.60;3.33;;;9.10;99.90;;;;;;5037480;28;19936;-89
2020/12/23 02:22:17;;;;;;;;;;;9.10;99.90;;;;;;5036940;28;20079;-89
2020/12/23 02:24:44;;;;;;;10.52;4.80;;;9.10;99.90;;;;;;5038085;28;19906;-89
2020/12/23 02:27:10;;;;;;;14.68;5.07;;;9.10;99.90;;;;;;5035649;28;20049;-88
2020/12/23 02:29:36;;;;;;;6.23;4.20;;;9.10;99.90;;;;;;5036657;28;20029;-86
2020/12/23 02:32:01;;;;;;;9.55;4.72;;;9.10;99.90;;;;;;5035124;28;20018;-86
2020/12/23 02:34:27;;;;;;;11.27;4.20;;;9.10;99.90;;;;;;5044173;28;20020;-87
2020/12/23 02:36:53;;;;;;;10.20;3.63;;;9.10;99.90;;;;;;5036628;28;20407;-87
2020/12/23 02:39:18;;;;;;;16.50;6.63;;;9.10;99.90;;;;;;5035359;28;20053;-87
2020/12/23 02:41:44;;;;;;;14.80;3.85;;;9.10;99.90;;;;;;5033782;28;20117;-89
2020/12/23 02:44:10;;;;;;;18.80;3.95;;;9.10;99.90;;;;;;5036272;28;20087;-87
2020/12/23 02:46:35;;;;;;;10.57;5.63;;;9.10;99.90;;;;;;5028950;28;20308;-87
2020/12/23 02:49:01;;;;;;;27.63;5.33;;;9.10;99.90;;;;;;5035288;28;20032;-87
2020/12/23 02:51:27;;;;;;;6.50;5.03;;;9.10;99.90;;;;;;5020627;28;20025;-87
2020/12/23 02:53:52;;;;;;;11.40;5.15;;;9.20;99.90;;;;;;5023421;28;20762;-87
2020/12/23 02:56:18;;;;;;;6.00;3.87;;;9.20;99.90;;;;;;5034788;28;20048;-87
2020/12/23 02:58:44;;;;;;;15.63;5.90;;;9.20;99.90;;;;;;5035432;28;20033;-87
2020/12/23 03:01:09;;;;;;;10.43;3.50;;;9.20;99.90;;;;;;5036782;28;20040;-88
2020/12/23 03:03:35;;;;;;;23.43;3.80;;;9.20;99.90;;;;;;5036326;28;20071;-87
2020/12/23 03:06:00;;;;;;;5.40;3.13;;;9.20;99.90;;;;;;5026682;28;20037;-88
2020/12/23 03:08:26;;;;;;;7.78;5.03;;;9.20;99.90;;;;;;5037086;28;20033;-88
2020/12/23 03:10:52;;;;;;;5.00;3.92;;;9.20;99.90;;;;;;5032609;28;20033;-89
2020/12/23 03:13:18;;;;;;;7.03;4.18;;;9.10;99.90;;;;;;5024611;28;20022;-88
2020/12/23 03:15:43;;;;;;;8.53;3.33;;;9.20;99.90;;;;;;5035965;28;20108;-88
2020/12/23 03:18:09;;;;;;;10.10;5.50;;;9.20;99.90;;;;;;5035349;28;20029;-87
2020/12/23 03:20:34;;;;;;;4.00;3.63;;;9.20;99.90;;;;;;5020955;28;20033;-88
2020/12/23 03:23:00;;;;;;;5.77;4.40;;;9.20;99.90;;;;;;5035589;28;20710;-88
2020/12/23 03:25:27;;;;;;;4.73;2.87;;;9.20;99.90;;;;;;5032737;28;20443;-90
2020/12/23 03:27:52;;;;;;;12.32;5.20;;;9.20;99.90;;;;;;5036034;28;20029;-89
2020/12/23 03:30:18;;;;;;;11.15;3.88;;;9.20;99.90;;;;;;5036617;28;20025;-88
2020/12/23 03:32:44;;;;;;;6.07;3.50;;;9.20;99.90;;;;;;5026384;28;20034;-89
2020/12/23 03:35:09;;;;;;;7.80;4.13;;;9.20;99.90;;;;;;5030532;28;20324;-89
2020/12/23 03:37:35;;;;;;;10.60;3.67;;;9.20;99.90;;;;;;5035363;28;20041;-88
2020/12/23 03:40:01;;;;;;;4.45;3.50;;;9.20;99.90;;;;;;5034780;28;20048;-87
2020/12/23 03:42:26;;;;;;;4.40;2.70;;;9.20;99.90;;;;;;5035361;28;20033;-88
2020/12/23 03:44:52;;;;;;;6.70;3.57;;;9.20;99.90;;;;;;5025448;28;20056;-88
2020/12/23 03:47:18;;;;;;;8.50;3.93;;;9.20;99.90;;;;;;5017335;28;20113;-87
2020/12/23 03:49:43;;;;;;;10.33;4.17;;;9.20;99.90;;;;;;5018333;28;20161;-87
2020/12/23 03:52:09;;;;;;;8.63;4.18;;;9.30;99.90;;;;;;5016547;28;20088;-87
2020/12/23 03:54:35;;;;;;;4.87;3.83;;;9.30;99.90;;;;;;5035118;28;20411;-87
2020/12/23 03:57:00;;;;;;;8.82;4.00;;;9.30;99.90;;;;;;5026223;28;20022;-86
2020/12/23 03:59:26;;;;;;;16.45;4.75;;;9.30;99.90;;;;;;5033991;28;20031;-87
2020/12/23 04:01:52;;;;;;;2.70;2.50;;;9.40;99.90;;;;;;5035403;28;20057;-87
2020/12/23 04:04:17;;;;;;;7.90;3.83;;;9.40;99.90;;;;;;5034483;28;20048;-87
2020/12/23 04:06:43;;;;;;;8.38;3.83;;;9.40;99.90;;;;;;5028543;28;20332;-85
2020/12/23 04:09:08;;;;;;;7.77;3.17;;;9.40;99.90;;;;;;5034783;28;20076;-86
2020/12/23 04:11:34;;;;;;;11.65;5.95;;;9.40;99.90;;;;;;5031528;28;20366;-87
2020/12/23 04:14:01;;;;;;;9.07;4.72;;;9.50;99.90;;;;;;5034604;28;20029;-85
2020/12/23 04:16:27;;;;;;;13.63;3.30;;;9.50;99.90;;;;;;5031498;28;20320;-86
2020/12/23 04:18:52;;;;;;;5.28;4.22;;;9.50;99.90;;;;;;5034091;28;20034;-87
2020/12/23 04:21:18;;;;;;;9.53;4.40;;;9.50;99.90;;;;;;5034466;28;20048;-85
2020/12/23 04:23:44;;;;;;;12.67;5.37;;;9.50;99.90;;;;;;5027688;28;20030;-85
2020/12/23 04:26:09;;;;;;;6.53;4.30;;;9.50;99.90;;;;;;5029146;28;20025;-86
2020/12/23 04:28:36;;;;;;;5.00;3.37;;;9.50;99.90;;;;;;5034254;28;20408;-85
2020/12/23 04:31:02;;;;;;;;;;;9.50;99.90;;;;;;5034559;28;20030;-88
2020/12/23 04:33:27;;;;;;;6.43;4.13;;;9.50;99.90;;;;;;5034420;28;19905;-87
2020/12/23 04:35:53;;;;;;;4.57;3.47;;;9.50;99.90;;;;;;5034620;28;20022;-88
2020/12/23 04:38:19;;;;;;;4.18;3.20;;;9.50;99.90;;;;;;5033784;28;20420;-86
2020/12/23 04:40:46;;;;;;;4.22;2.60;;;9.60;99.90;;;;;;5033854;28;20025;-85
2020/12/23 04:43:11;;;;;;;3.58;2.80;;;9.60;99.90;;;;;;5034009;28;20033;-86
2020/12/23 04:45:37;;;;;;;6.47;4.43;;;9.60;99.90;;;;;;5034481;28;20327;-85
2020/12/23 04:48:03;;;;;;;11.00;4.67;;;9.60;99.90;;;;;;5034236;28;20033;-84
2020/12/23 04:50:33;;;;;;;4.03;2.67;;;9.60;99.90;;;;;;5034340;28;20028;-85
2020/12/23 04:52:58;;;;;;;14.02;6.05;;;9.70;99.90;;;;;;5024121;28;20416;-85
2020/12/23 04:55:24;;;;;;;6.97;4.37;;;9.70;99.90;;;;;;5033558;28;20072;-84
2020/12/23 04:57:54;;;;;;;5.97;3.77;;;9.70;99.90;;;;;;5037399;28;20072;-85
2020/12/23 05:00:21;;;;;;;4.15;2.80;;;9.70;99.90;;;;;;5037187;28;20120;-85
2020/12/23 05:02:46;;;;;;;6.68;3.83;;;9.70;99.90;;;;;;5037804;28;20412;-84
2020/12/23 05:05:12;;;;;;;15.27;4.55;;;9.70;99.90;;;;;;5037749;28;20044;-84
2020/12/23 05:07:38;;;;;;;5.70;3.83;;;9.80;99.90;;;;;;5037688;28;20025;-84
2020/12/23 05:10:06;;;;;;;8.10;3.77;;;9.80;99.90;;;;;;5037505;28;20065;-85
2020/12/23 05:12:32;;;;;;;6.82;3.70;;;9.80;99.90;;;;;;5037979;28;20053;-85
2020/12/23 05:15:03;;;;;;;5.80;3.40;;;9.80;99.90;;;;;;5036269;28;20431;-86
2020/12/23 05:17:31;;;;;;;6.68;2.75;;;9.80;99.90;;;;;;5050611;28;20025;-86
2020/12/23 05:19:56;;;;;;;13.82;4.35;;;9.80;99.90;;;;;;5052146;28;20030;-85
2020/12/23 05:22:22;;;;;;;5.70;4.37;;;9.80;99.90;;;;;;5051617;28;20037;-84
2020/12/23 05:24:53;;;;;;;3.67;2.90;;;9.80;99.90;;;;;;5044000;28;20029;-84
2020/12/23 05:27:21;;;;;;;10.43;3.67;;;9.80;99.90;;;;;;5042599;28;20053;-85
2020/12/23 05:29:48;;;;;;;7.32;4.60;;;9.90;99.90;;;;;;5039061;28;20052;-84
2020/12/23 05:32:13;;;;;;;19.48;3.70;;;9.90;99.90;;;;;;5037501;28;20029;-83
2020/12/23 05:34:42;;;;;;;4.63;2.97;;;9.90;99.90;;;;;;5037730;28;20026;-83
2020/12/23 05:37:07;;;;;;;9.82;4.03;;;10.00;99.90;;;;;;5037938;28;20028;-83
2020/12/23 05:39:33;;;;;;;3.67;2.53;;;10.00;99.90;;;;;;5038051;28;20038;-83
2020/12/23 05:41:59;;;;;;;7.47;3.80;;;10.00;99.90;;;;;;5024180;28;20021;-84
2020/12/23 05:44:26;;;;;;;9.23;4.35;;;10.00;99.90;;;;;;5038137;28;20033;-85
2020/12/23 05:46:53;;;;;;;5.72;4.15;;;10.10;99.90;;;;;;5036830;28;20033;-85
2020/12/23 05:49:21;;;;;;;4.32;2.78;;;10.10;99.90;;;;;;5038585;28;20029;-84
2020/12/23 05:51:49;;;;;;;6.47;3.45;;;10.10;99.90;;;;;;5036806;28;20079;-86
2020/12/23 05:54:21;;;;;;;3.15;2.53;;;10.10;99.90;;;;;;5037062;28;20121;-85
2020/12/23 05:56:51;;;;;;;3.88;3.30;;;10.10;99.90;;;;;;5037466;28;20416;-85
2020/12/23 05:59:18;;;;;;;5.10;3.28;;;10.00;99.90;;;;;;5038309;28;20018;-86
2020/12/23 06:01:44;;;;;;;6.50;3.95;;;10.10;99.90;;;;;;5038493;28;20022;-85
2020/12/23 06:04:15;;;;;;;3.40;2.92;;;10.10;99.90;;;;;;5023331;28;20030;-85
2020/12/23 06:06:46;;;;;;;5.45;2.67;;;10.00;99.90;;;;;;5030758;28;20038;-86
2020/12/23 06:09:15;;;;;;;5.43;3.20;;;10.00;99.90;;;;;;5035251;28;20416;-84
2020/12/23 06:11:44;;;;;;;4.82;2.92;;;10.00;99.90;;;;;;5036796;28;20026;-86
2020/12/23 06:14:37;;;;;;;5.22;2.45;;;10.10;99.90;;;;;;5036156;28;20359;-86
2020/12/23 06:17:05;;;;;;;6.43;3.78;;;10.10;99.90;;;;;;5035556;28;20025;-85
2020/12/23 06:19:39;;;;;;;4.15;2.65;;;10.10;99.90;;;;;;5035798;28;20022;-83
2020/12/23 06:22:07;;;;;;;5.63;3.00;;;10.10;99.90;;;;;;5035527;28;20418;-83
2020/12/23 06:24:35;;;;;;;4.03;2.95;;;10.10;99.90;;;;;;5036912;28;20021;-84
2020/12/23 06:27:05;;;;;;;2.80;2.60;;;10.20;99.90;;;;;;5035854;28;20057;-84
2020/12/23 06:29:33;;;;;;;11.70;3.83;;;10.20;99.90;;;;;;5036304;28;20108;-84
2020/12/23 06:32:07;;;;;;;4.03;2.38;;;10.30;99.90;;;;;;5035883;28;20026;-84
2020/12/23 06:34:36;;;;;;;4.15;2.85;;;10.30;99.90;;;;;;5033857;28;20061;-83
2020/12/23 06:37:19;;;;;;;6.75;4.07;;;10.30;99.90;;;;;;5027525;28;20022;-83
2020/12/23 06:39:45;;;;;;;8.25;3.75;;;10.30;99.90;;;;;;5040069;28;20045;-83
2020/12/23 06:42:11;;;;;;;4.45;3.45;;;10.30;99.90;;;;;;5030388;28;20028;-84
2020/12/23 06:44:43;;;;;;;7.33;3.20;;;10.30;99.90;;;;;;5042633;28;20030;-84
2020/12/23 06:47:22;;;;;;;4.75;3.30;;;10.30;99.90;;;;;;5023473;28;20033;-84
2020/12/23 06:49:55;;;;;;;2.63;2.03;;;10.40;99.90;;;;;;5024435;28;20421;-83
2020/12/23 06:52:24;;;;;;;2.00;1.85;;;10.30;99.90;;;;;;5035017;28;20025;-82
2020/12/23 06:55:07;;;;;;;4.25;2.10;;;10.30;99.90;;;;;;5022962;28;20032;-83
2020/12/23 06:57:38;;;;;;;4.70;2.97;;;10.30;99.90;;;;;;5028779;28;20582;-83
2020/12/23 07:00:08;;;;;;;2.28;2.08;;;10.40;99.90;;;;;;5036110;28;20583;-81
2020/12/23 07:02:40;;;;;;;9.20;2.95;;;10.40;99.90;;;;;;5020905;28;20029;-84
2020/12/23 07:05:08;;;;;;;5.78;3.92;;;10.40;99.90;;;;;;5033020;28;20036;-84
2020/12/23 07:07:35;;;;;;;2.47;2.28;;;10.40;99.90;;;;;;5035513;28;20751;-84
2020/12/23 07:10:21;;;;;;;4.47;2.45;;;10.40;99.90;;;;;;5031349;28;20029;-83
2020/12/23 07:13:02;;;;;;;7.97;3.63;;;10.30;99.90;;;;;;5028642;28;20026;-82
2020/12/23 07:15:30;;;;;;;1.88;1.73;;;10.30;99.90;;;;;;5041991;28;20049;-84
2020/12/23 07:17:59;;;;;;;3.33;2.25;;;10.40;99.90;;;;;;5040131;28;20113;-85
2020/12/23 07:20:25;;;;;;;5.32;2.83;;;10.40;99.90;;;;;;5031979;28;20068;-84
2020/12/23 07:22:52;;;;;;;4.90;2.57;;;10.40;99.90;;;;;;5026020;28;20037;-84
2020/12/23 07:25:25;;;;;;;4.85;2.40;;;10.40;99.90;;;;;;5029032;28;20048;-84
2020/12/23 07:27:58;;;;;;;3.40;2.65;;;10.40;99.90;;;;;;5033860;28;20022;-83
2020/12/23 07:30:25;;;;;;;2.72;2.08;;;10.40;99.90;;;;;;5027928;28;20402;-85
2020/12/23 07:33:10;;;;;;;;;;;10.40;99.90;;;;;;5027337;28;20109;-85
2020/12/23 07:35:36;;;;;;;2.88;1.73;;;10.50;99.90;;;;;;5023566;28;20303;-84
2020/12/23 07:38:05;;;;;;;1.85;1.75;;;10.40;99.90;;;;;;5026121;28;20120;-83
2020/12/23 07:40:31;;;;;;;3.35;1.73;;;10.50;99.90;;;;;;5034643;28;20454;-83
2020/12/23 07:42:57;;;;;;;4.25;1.52;;;10.60;99.90;;;;;;5032560;28;20033;-83
2020/12/23 07:45:28;;;;;;;1.65;1.45;;;10.60;99.90;;;;;;5032284;28;20037;-85
2020/12/23 07:47:59;;;;;;;5.82;2.35;;;10.50;99.90;;;;;;5028751;28;20030;-85
2020/12/23 07:50:27;;;;;;;7.13;3.10;;;10.50;99.90;;;;;;5035728;28;20049;-86
2020/12/23 07:52:53;;;;;;;5.40;2.67;;;10.50;99.90;;;;;;5027648;28;20079;-89
2020/12/23 07:55:20;;;;;;;3.30;2.60;;;10.50;99.90;;;;;;5029740;28;20109;-90
2020/12/23 07:57:49;;;;;;;4.35;2.13;;;10.50;99.90;;;;;;5027082;28;20033;-88
2020/12/23 08:00:16;;;;;;;2.65;2.42;;;10.50;99.90;;;;;;5030664;28;20056;-91
2020/12/23 08:02:42;;;;;;;6.72;2.67;;;10.50;99.90;;;;;;5026821;28;20037;-90
2020/12/23 08:05:10;;;;;;;3.95;2.80;;;10.50;99.90;;;;;;5031642;28;20171;-91
2020/12/23 08:07:45;;;;;;;2.35;2.15;;;10.50;99.90;;;;;;5030840;28;20030;-89
2020/12/23 08:10:15;;;;;;;4.60;2.17;;;10.50;99.90;;;;;;5023476;28;20030;-91
2020/12/23 08:12:59;;;;;;;7.82;3.92;;;10.60;99.90;;;;;;5030426;28;20021;-91
2020/12/23 08:15:25;;;;;;;8.38;2.72;;;10.50;99.90;;;;;;5032451;28;20155;-89
2020/12/23 08:18:01;;;;;;;6.20;3.75;;;10.60;99.90;;;;;;5033683;28;20060;-90
2020/12/23 08:20:27;;;;;;;5.10;2.65;;;10.60;99.90;;;;;;5032408;28;20033;-88
2020/12/23 08:22:53;;;;;;;2.03;1.80;;;10.60;99.90;;;;;;5033429;28;20124;-89
2020/12/23 08:25:20;;;;;;;2.87;2.07;;;10.60;99.90;;;;;;5034429;28;20112;-89
2020/12/23 08:27:48;;;;;;;7.10;3.63;;;10.60;99.90;;;;;;5035585;28;20391;-90
2020/12/23 08:30:28;;;;;;;8.65;3.17;;;10.70;99.90;;;;;;5038154;28;20416;-91
2020/12/23 08:32:59;;;;;;;3.30;1.33;;;10.70;99.90;;;;;;5039893;28;20085;-92
2020/12/23 08:35:27;;;;;;;10.38;3.25;;;10.70;99.90;;;;;;5038486;28;20044;-89
2020/12/23 08:37:53;;;;;;;6.28;3.20;;;10.70;99.90;;;;;;5040187;28;20038;-93
2020/12/23 08:40:19;;;;;;;2.77;2.37;;;10.70;99.90;;;;;;5039911;28;20032;-96
2020/12/23 08:42:52;;;;;;;3.47;2.83;;;10.70;99.90;;;;;;5033899;28;20026;-91
2020/12/23 08:45:23;;;;;;;9.13;3.05;;;10.70;99.90;;;;;;5036276;28;20025;-88
2020/12/23 08:47:49;;;;;;;2.17;1.98;;;10.70;99.90;;;;;;5048648;28;20030;-89
2020/12/23 08:50:17;;;;;;;3.88;2.63;;;10.80;99.90;;;;;;5034991;28;20045;-88
2020/12/23 08:52:48;;;;;;;5.32;2.70;;;10.70;99.90;;;;;;5028246;28;20040;-90
2020/12/23 08:55:25;;;;;;;3.10;1.67;;;10.70;99.90;;;;;;5037671;28;20412;-93
2020/12/23 08:57:51;;;;;;;;;;;10.70;99.90;;;;;;5036849;28;20100;-89
2020/12/23 09:00:17;;;;;;;11.75;2.42;;;10.70;99.90;;;;;;5035719;28;19963;-91
2020/12/23 09:02:45;;;;;;;3.25;1.10;;;10.70;99.90;;;;;;5037808;28;20120;-95
2020/12/23 09:05:24;;;;;;;8.25;2.13;;;10.80;99.90;;;;;;5036372;28;20776;-91
2020/12/23 09:08:11;;;;;;;2.08;1.75;;;10.80;99.90;;;;;;5033839;28;20038;-90
2020/12/23 09:10:50;;;;;;;2.55;2.08;;;10.80;99.90;;;;;;5022085;28;20041;-90
2020/12/23 09:13:16;;;;;;;2.38;1.55;;;10.80;99.90;;;;;;5038306;28;20029;-89
2020/12/23 09:15:42;;;;;;;9.83;2.63;;;10.80;99.90;;;;;;5036883;28;20068;-89
2020/12/23 09:18:14;;;;;;;2.20;2.00;;;10.80;99.90;;;;;;5037665;28;20036;-87
2020/12/23 09:20:42;;;;;;;2.55;2.35;;;10.80;99.90;;;;;;5037144;28;20030;-87
2020/12/23 09:23:09;;;;;;;2.67;2.00;;;10.90;99.90;;;;;;5035538;28;20438;-89
2020/12/23 09:25:37;;;;;;;2.58;1.70;;;10.90;99.90;;;;;;5034217;28;20033;-87
2020/12/23 09:28:11;;;;;;;3.50;2.65;;;10.90;99.90;;;;;;5032012;28;20045;-94
2020/12/23 09:30:38;;;;;;;5.13;1.63;;;10.90;99.90;;;;;;5036715;28;20033;-88
2020/12/23 09:33:14;;;;;;;5.30;2.13;;;10.90;99.90;;;;;;5036066;28;20056;-89
2020/12/23 09:35:41;;;;;;;6.75;2.92;;;10.90;99.90;;;;;;5034422;28;20025;-90
2020/12/23 09:38:27;;;;;;;1.45;1.35;;;10.90;99.90;;;;;;5037226;28;20056;-89
2020/12/23 09:40:55;;;;;;;4.60;2.15;;;10.90;99.90;;;;;;5029939;28;20186;-91
2020/12/23 09:43:23;;;;;;;3.47;2.58;;;10.90;99.90;;;;;;5028215;28;20037;-93
2020/12/23 09:45:51;;;;;;;2.50;1.85;;;10.80;99.90;;;;;;5037581;28;20387;-92
2020/12/23 09:48:18;;;;;;;1.77;1.63;;;10.90;99.90;;;;;;5037345;28;20026;-90
2020/12/23 09:50:46;;;;;;;7.15;2.10;;;10.90;99.90;;;;;;5036976;28;20029;-89
2020/12/23 09:53:12;;;;;;;1.40;1.27;;;10.90;99.90;;;;;;5040171;28;20395;-90
2020/12/23 09:55:41;;;;;;;2.97;2.10;;;10.90;99.90;;;;;;5029124;28;20416;-90
2020/12/23 09:58:08;;;;;;;4.20;2.13;;;10.90;99.90;;;;;;5034989;28;20064;-90
2020/12/23 10:00:33;;;;;;;4.75;2.17;;;10.90;99.90;;;;;;5036498;28;20029;-91
2020/12/23 10:02:59;;;;;;;3.55;1.77;;;10.90;99.90;;;;;;5033996;28;20051;-89
2020/12/23 10:05:26;;;;;;;1.70;1.33;;;10.90;99.90;;;;;;5032983;28;20026;-90
2020/12/23 10:07:52;;;;;;;2.75;1.40;;;10.90;99.90;;;;;;5037246;28;20025;-90
2020/12/23 10:10:18;;;;;;;5.17;2.33;;;10.90;99.90;;;;;;5036435;28;20040;-92
2020/12/23 10:12:43;;;;;;;2.37;2.13;;;10.90;99.90;;;;;;5034654;28;20345;-90
2020/12/23 10:15:09;;;;;;;4.47;2.57;;;10.90;99.90;;;;;;5032651;28;20022;-91
2020/12/23 10:17:36;;;;;;;2.27;1.63;;;10.90;99.90;;;;;;5033388;28;20022;-90
2020/12/23 10:20:02;;;;;;;1.30;1.25;;;10.90;99.90;;;;;;5025027;28;20050;-91
2020/12/23 10:22:28;;;;;;;1.63;1.52;;;10.90;99.90;;;;;;5032494;28;20463;-90
2020/12/23 10:24:53;;;;;;;2.17;1.67;;;10.90;99.90;;;;;;5027805;28;20082;-90
2020/12/23 10:27:19;;;;;;;2.35;2.15;;;10.90;99.90;;;;;;5031070;28;20104;-89
2020/12/23 10:29:45;;;;;;;1.87;1.33;;;10.90;99.90;;;;;;5034649;28;20363;-90
2020/12/23 10:32:10;;;;;;;6.80;1.40;;;10.90;99.90;;;;;;5037293;28;20108;-89
2020/12/23 10:34:36;;;;;;;6.27;3.00;;;10.90;99.90;;;;;;5036574;28;20053;-91
2020/12/23 10:37:02;;;;;;;3.33;1.63;;;10.90;99.90;;;;;;5025387;28;20432;-92
2020/12/23 10:39:28;;;;;;;3.40;1.77;;;10.90;99.90;;;;;;5031306;28;20091;-91
2020/12/23 10:41:54;;;;;;;4.03;2.05;;;10.90;99.90;;;;;;5035929;28;20038;-90
2020/12/23 10:44:22;;;;;;;1.20;1.10;;;10.90;99.90;;;;;;5036444;28;20037;-91
2020/12/23 10:46:52;;;;;;;1.60;1.05;;;10.90;99.90;;;;;;5023885;28;20044;-91
2020/12/23 10:49:18;;;;;;;2.63;2.42;;;10.90;99.90;;;;;;5036415;28;20072;-88
2020/12/23 10:51:48;;;;;;;1.33;1.17;;;10.90;99.90;;;;;;5034412;28;20033;-89
2020/12/23 10:54:14;;;;;;;1.25;0.70;;;10.90;99.90;;;;;;5030352;28;20109;-90
2020/12/23 10:56:40;;;;;;;1.33;0.90;;;10.90;99.90;;;;;;5029440;28;20096;-90
2020/12/23 10:59:05;;;;;;;2.33;1.63;;;10.90;99.90;;;;;;5035575;28;20129;-89
2020/12/23 11:01:31;;;;;;;3.43;1.03;;;10.90;99.90;;;;;;5030329;28;20022;-90
2020/12/23 11:03:57;;;;;;;0.83;0.67;;;10.90;99.90;;;;;;5029698;28;20028;-87
2020/12/23 11:06:22;;;;;;;2.80;1.20;;;11.00;99.90;;;;;;5023751;28;20036;-88
2020/12/23 11:08:48;;;;;;;5.43;1.87;;;11.00;99.90;;;;;;5028110;28;20029;-88
2020/12/23 11:11:14;;;;;;;2.00;1.35;;;11.00;99.90;;;;;;5032954;28;20029;-86
2020/12/23 11:13:41;;;;;;;0.90;0.90;;;11.00;99.90;;;;;;5035123;28;20108;-89
2020/12/23 11:16:13;;;;;;;1.02;0.98;;;11.00;99.90;;;;;;5041697;28;20026;-87
2020/12/23 11:18:39;;;;;;;3.15;1.63;;;11.00;99.90;;;;;;5023998;28;20022;-87
2020/12/23 11:21:05;;;;;;;2.47;1.47;;;11.10;99.90;;;;;;5046834;28;20032;-86
2020/12/23 11:23:31;;;;;;;3.83;1.10;;;11.10;99.90;;;;;;5033549;28;20063;-88
2020/12/23 11:25:56;;;;;;;3.22;1.73;;;11.10;99.90;;;;;;5026758;28;20092;-87
2020/12/23 11:28:22;;;;;;;1.33;1.23;;;11.10;99.90;;;;;;5045724;28;20017;-87
2020/12/23 11:30:49;;;;;;;1.23;1.17;;;11.20;99.90;;;;;;5027570;28;20030;-87
2020/12/23 11:33:15;;;;;;;20.80;1.15;;;11.20;99.90;;;;;;5044373;28;20030;-88
2020/12/23 11:35:41;;;;;;;4.78;1.90;;;11.20;99.90;;;;;;5033345;28;20034;-88
2020/12/23 11:38:08;;;;;;;0.93;0.93;;;11.20;99.90;;;;;;5032529;28;20076;-87
2020/12/23 11:40:34;;;;;;;1.20;0.85;;;11.20;99.90;;;;;;5021658;28;20118;-86
2020/12/23 11:42:59;;;;;;;4.18;1.58;;;11.20;99.90;;;;;;5027170;28;20123;-88
2020/12/23 11:45:25;;;;;;;1.80;1.20;;;11.20;99.90;;;;;;5032321;28;20438;-86
2020/12/23 11:47:51;;;;;;;1.50;1.33;;;11.20;99.90;;;;;;5028100;28;20103;-89
2020/12/23 11:50:17;;;;;;;2.70;2.30;;;11.20;99.90;;;;;;5033207;28;21217;-89
2020/12/23 11:52:43;;;;;;;0.97;0.90;;;11.20;99.90;;;;;;5033844;28;20036;-88
2020/12/23 11:55:09;;;;;;;5.03;3.97;;;11.20;99.90;;;;;;5033524;28;20480;-88
2020/12/23 11:57:38;;;;;;;14.47;9.83;;;11.30;99.90;;;;;;5034257;28;20029;-88
2020/12/23 12:00:05;;;;;;;24.85;5.63;;;11.30;99.90;;;;;;5036478;28;20021;-88
2020/12/23 12:02:31;;;;;;;6.80;2.85;;;11.30;99.90;;;;;;5038299;28;20447;-88
2020/12/23 12:04:57;;;;;;;1.73;1.57;;;11.30;99.90;;;;;;5036503;28;20025;-88
2020/12/23 12:07:23;;;;;;;6.87;4.37;;;11.30;99.90;;;;;;5036037;28;20029;-89
2020/12/23 12:09:48;;;;;;;4.83;2.70;;;11.30;99.90;;;;;;5030619;28;20112;-88
2020/12/23 12:12:14;;;;;;;2.37;2.17;;;11.30;99.90;;;;;;5028409;28;20309;-89
2020/12/23 12:14:40;;;;;;;13.80;4.17;;;11.30;99.90;;;;;;5029302;28;21517;-88
2020/12/23 12:17:05;;;;;;;6.38;2.45;;;11.30;99.90;;;;;;5029715;28;20032;-87
2020/12/23 12:19:31;;;;;;;8.80;3.43;;;11.30;99.90;;;;;;5030860;28;20400;-87
2020/12/23 12:21:57;;;;;;;2.07;1.43;;;11.30;99.90;;;;;;5027479;28;20041;-88
2020/12/23 12:24:22;;;;;;;1.40;1.03;;;11.30;99.90;;;;;;5029340;28;20037;-88
2020/12/23 12:26:48;;;;;;;1.30;0.70;;;11.30;99.90;;;;;;5030977;28;20064;-88
2020/12/23 12:29:14;;;;;;;3.13;2.03;;;11.30;99.90;;;;;;5029641;28;20438;-88
2020/12/23 12:31:40;;;;;;;1.43;1.33;;;11.30;99.90;;;;;;5035061;28;20021;-89
2020/12/23 12:34:06;;;;;;;7.07;5.90;;;11.30;99.90;;;;;;5029789;28;20278;-90
2020/12/23 12:36:32;;;;;;;1.57;1.23;;;11.30;99.90;;;;;;5022729;28;20290;-89
2020/12/23 12:38:57;;;;;;;2.10;1.90;;;11.30;99.90;;;;;;5022860;28;20049;-87
2020/12/23 12:41:27;;;;;;;2.90;1.70;;;11.20;99.90;;;;;;5024682;28;20030;-80
2020/12/23 12:43:54;;;;;;;1.08;1.00;;;11.20;99.90;;;;;;5030597;28;20061;-85
2020/12/23 12:46:20;;;;;;;1.30;1.10;;;11.30;99.90;;;;;;5028119;28;20116;-86
2020/12/23 12:48:46;;;;;;;1.88;1.52;;;11.30;99.90;;;;;;5022274;28;20037;-87
2020/12/23 12:51:12;;;;;;;3.83;2.77;;;11.30;99.90;;;;;;5030609;28;20094;-86
2020/12/23 12:53:37;;;;;;;1.70;1.60;;;11.30;99.90;;;;;;5045984;28;20091;-85